createdAt,value
2018-08-23T00:00:01.712Z,2.40
2018-08-23T00:01:07.793Z,2.40
2018-08-23T00:02:14.081Z,4.10
2018-08-23T00:03:20.187Z,3.05
2018-08-23T00:04:26.609Z,3.67
2018-08-23T00:05:32.672Z,6.00
2018-08-23T00:06:38.027Z,3.75
2018-08-23T00:07:43.742Z,3.10
2018-08-23T00:08:49.374Z,2.97
2018-08-23T00:09:55.434Z,5.25
2018-08-23T00:11:01.536Z,2.95
2018-08-23T00:12:08.449Z,2.85
2018-08-23T00:13:14.776Z,4.65
2018-08-23T00:14:20.745Z,2.85
2018-08-23T00:15:26.417Z,2.75
2018-08-23T00:16:32.694Z,7.70
2018-08-23T00:17:38.391Z,2.95
2018-08-23T00:18:44.676Z,2.53
2018-08-23T00:19:51.010Z,5.28
2018-08-23T00:20:56.679Z,4.45
2018-08-23T00:22:02.991Z,2.42
2018-08-23T00:23:10.012Z,3.58
2018-08-23T00:24:16.346Z,4.85
2018-08-23T00:25:22.653Z,5.95
2018-08-23T00:26:28.976Z,4.50
2018-08-23T00:27:35.262Z,3.47
2018-08-23T00:28:41.278Z,5.53
2018-08-23T00:29:47.589Z,3.53
2018-08-23T00:30:53.788Z,6.10
2018-08-23T00:31:59.692Z,4.75
2018-08-23T00:33:05.745Z,3.53
2018-08-23T00:34:12.013Z,3.80
2018-08-23T00:35:18.101Z,2.80
2018-08-23T00:36:24.360Z,2.70
2018-08-23T00:37:30.637Z,3.00
2018-08-23T00:38:37.509Z,3.85
2018-08-23T00:39:43.788Z,2.85
2018-08-23T00:40:50.081Z,2.70
2018-08-23T00:41:56.203Z,4.25
2018-08-23T00:43:03.226Z,3.08
2018-08-23T00:44:09.428Z,2.75
2018-08-23T00:45:15.049Z,3.03
2018-08-23T00:46:20.788Z,3.22
2018-08-23T00:47:27.062Z,3.62
2018-08-23T00:48:33.344Z,3.95
2018-08-23T00:49:39.099Z,4.85
2018-08-23T00:50:45.091Z,2.97
2018-08-23T00:51:51.407Z,2.35
2018-08-23T00:52:57.684Z,4.35
2018-08-23T00:54:04.483Z,3.10
2018-08-23T00:55:12.082Z,4.32
2018-08-23T00:56:18.034Z,3.37
2018-08-23T00:57:24.052Z,3.08
2018-08-23T00:58:30.943Z,3.50
2018-08-23T00:59:37.320Z,3.15
2018-08-23T01:00:42.611Z,3.28
2018-08-23T01:01:47.429Z,2.72
2018-08-23T01:02:52.904Z,4.18
2018-08-23T01:03:58.859Z,3.62
2018-08-23T01:05:04.829Z,3.33
2018-08-23T01:06:10.865Z,4.35
2018-08-23T01:07:16.306Z,3.62
2018-08-23T01:08:22.328Z,3.33
2018-08-23T01:09:28.603Z,3.42
2018-08-23T01:10:34.327Z,2.87
2018-08-23T01:11:40.531Z,3.60
2018-08-23T01:12:45.776Z,3.22
2018-08-23T01:13:52.219Z,3.80
2018-08-23T01:14:58.533Z,3.80
2018-08-23T01:16:04.139Z,4.20
2018-08-23T01:17:09.987Z,3.75
2018-08-23T01:18:15.410Z,3.25
2018-08-23T01:19:22.170Z,4.00
2018-08-23T01:20:28.564Z,3.15
2018-08-23T01:21:33.979Z,3.92
2018-08-23T01:22:39.656Z,4.03
2018-08-23T01:23:45.641Z,4.10
2018-08-23T01:24:51.728Z,3.72
2018-08-23T01:25:57.904Z,3.87
2018-08-23T01:27:03.644Z,3.03
2018-08-23T01:28:13.677Z,3.65
2018-08-23T01:29:19.037Z,5.12
2018-08-23T01:30:25.022Z,3.20
2018-08-23T01:31:31.781Z,4.43
2018-08-23T01:32:38.190Z,2.62
2018-08-23T01:33:44.533Z,3.28
2018-08-23T01:34:50.793Z,3.00
2018-08-23T01:35:57.099Z,3.45
2018-08-23T01:37:03.462Z,3.35
2018-08-23T01:38:09.367Z,3.53
2018-08-23T01:39:15.432Z,4.25
2018-08-23T01:40:21.513Z,3.47
2018-08-23T01:41:27.944Z,3.53
2018-08-23T01:42:34.152Z,3.62
2018-08-23T01:43:40.240Z,3.78
2018-08-23T01:44:46.628Z,4.20
2018-08-23T01:45:52.875Z,4.72
2018-08-23T01:46:58.431Z,5.40
2018-08-23T01:48:03.708Z,3.90
2018-08-23T01:49:10.079Z,3.70
2018-08-23T01:50:16.419Z,4.75
2018-08-23T01:51:22.695Z,4.37
2018-08-23T01:52:29.165Z,5.85
2018-08-23T01:53:35.188Z,4.05
2018-08-23T01:54:41.244Z,7.55
2018-08-23T01:55:48.508Z,5.60
2018-08-23T01:56:54.803Z,3.67
2018-08-23T01:58:00.731Z,4.15
2018-08-23T01:59:06.984Z,5.10
2018-08-23T02:00:12.706Z,5.45
2018-08-23T02:01:18.343Z,4.47
2018-08-23T02:02:23.745Z,3.62
2018-08-23T02:03:29.437Z,4.25
2018-08-23T02:04:35.692Z,4.03
2018-08-23T02:05:42.633Z,4.30
2018-08-23T02:06:49.641Z,4.30
2018-08-23T02:07:55.648Z,3.92
2018-08-23T02:09:02.111Z,4.00
2018-08-23T02:10:07.403Z,3.85
2018-08-23T02:11:13.443Z,6.62
2018-08-23T02:12:20.382Z,6.70
2018-08-23T02:13:26.466Z,4.70
2018-08-23T02:14:32.599Z,3.87
2018-08-23T02:15:38.768Z,4.97
2018-08-23T02:16:44.094Z,3.70
2018-08-23T02:17:50.021Z,5.20
2018-08-23T02:18:56.035Z,4.68
2018-08-23T02:20:02.317Z,4.75
2018-08-23T02:21:18.037Z,5.68
2018-08-23T02:22:24.312Z,4.00
2018-08-23T02:23:29.671Z,5.80
2018-08-23T02:24:36.408Z,3.58
2018-08-23T02:25:45.768Z,3.12
2018-08-23T02:26:59.308Z,5.30
2018-08-23T02:28:07.754Z,8.20
2018-08-23T02:29:19.292Z,3.60
2018-08-23T02:30:26.720Z,4.45
2018-08-23T02:31:34.740Z,3.67
2018-08-23T02:32:48.440Z,3.78
2018-08-23T02:33:56.742Z,5.30
2018-08-23T02:35:04.672Z,5.15
2018-08-23T02:36:15.703Z,6.47
2018-08-23T02:37:23.169Z,5.65
2018-08-23T02:38:33.217Z,4.35
2018-08-23T02:39:39.924Z,5.10
2018-08-23T02:40:46.174Z,3.95
2018-08-23T02:41:52.494Z,5.50
2018-08-23T02:42:58.934Z,5.03
2018-08-23T02:44:05.263Z,4.60
2018-08-23T02:45:11.305Z,4.55
2018-08-23T02:46:17.627Z,4.70
2018-08-23T02:47:23.872Z,3.67
2018-08-23T02:48:30.163Z,4.22
2018-08-23T02:49:36.461Z,4.00
2018-08-23T02:50:42.628Z,3.67
2018-08-23T02:51:48.460Z,4.43
2018-08-23T02:52:54.685Z,3.95
2018-08-23T02:54:00.863Z,5.87
2018-08-23T02:55:10.851Z,4.60
2018-08-23T02:56:18.278Z,3.05
2018-08-23T02:57:31.315Z,3.25
2018-08-23T02:58:40.383Z,3.70
2018-08-23T02:59:48.636Z,4.22
2018-08-23T03:00:59.662Z,7.45
2018-08-23T03:02:07.776Z,4.65
2018-08-23T03:03:19.101Z,3.80
2018-08-23T03:04:25.829Z,3.85
2018-08-23T03:05:31.259Z,6.10
2018-08-23T03:06:36.683Z,3.40
2018-08-23T03:07:42.987Z,3.53
2018-08-23T03:08:48.977Z,5.37
2018-08-23T03:09:55.508Z,5.50
2018-08-23T03:11:01.732Z,4.65
2018-08-23T03:12:07.396Z,3.60
2018-08-23T03:13:13.524Z,3.80
2018-08-23T03:14:19.343Z,6.28
2018-08-23T03:15:25.717Z,4.65
2018-08-23T03:16:31.302Z,5.45
2018-08-23T03:17:37.081Z,4.25
2018-08-23T03:18:43.447Z,4.70
2018-08-23T03:19:48.996Z,3.75
2018-08-23T03:20:54.621Z,3.20
2018-08-23T03:22:00.608Z,4.75
2018-08-23T03:23:06.961Z,4.53
2018-08-23T03:24:13.225Z,4.10
2018-08-23T03:25:18.999Z,6.10
2018-08-23T03:26:25.223Z,3.53
2018-08-23T03:27:31.718Z,7.03
2018-08-23T03:28:38.189Z,3.97
2018-08-23T03:29:44.665Z,4.05
2018-08-23T03:30:49.977Z,3.45
2018-08-23T03:31:56.153Z,4.05
2018-08-23T03:33:02.396Z,3.95
2018-08-23T03:34:08.730Z,5.30
2018-08-23T03:35:14.708Z,6.00
2018-08-23T03:36:21.130Z,4.90
2018-08-23T03:37:27.563Z,3.85
2018-08-23T03:38:33.532Z,5.72
2018-08-23T03:39:39.992Z,4.95
2018-08-23T03:40:46.307Z,3.20
2018-08-23T03:41:52.583Z,4.68
2018-08-23T03:42:58.904Z,3.90
2018-08-23T03:44:04.908Z,5.25
2018-08-23T03:45:10.060Z,6.10
2018-08-23T03:46:16.310Z,5.82
2018-08-23T03:47:22.594Z,6.43
2018-08-23T03:48:28.520Z,4.40
2018-08-23T03:49:34.718Z,6.35
2018-08-23T03:50:40.680Z,4.62
2018-08-23T03:51:47.064Z,4.07
2018-08-23T03:52:53.360Z,4.80
2018-08-23T03:53:59.697Z,6.03
2018-08-23T03:55:05.447Z,4.45
2018-08-23T03:56:11.756Z,5.50
2018-08-23T03:57:17.885Z,3.40
2018-08-23T03:58:24.196Z,3.97
2018-08-23T03:59:29.545Z,4.20
2018-08-23T04:00:34.864Z,4.10
2018-08-23T04:01:40.862Z,5.85
2018-08-23T04:02:47.240Z,5.35
2018-08-23T04:03:54.192Z,4.62
2018-08-23T04:05:00.093Z,3.97
2018-08-23T04:06:06.280Z,4.32
2018-08-23T04:07:12.356Z,4.43
2018-08-23T04:08:18.028Z,3.58
2018-08-23T04:09:24.872Z,5.55
2018-08-23T04:10:31.216Z,3.55
2018-08-23T04:11:37.501Z,3.87
2018-08-23T04:12:44.013Z,4.07
2018-08-23T04:13:50.331Z,3.28
2018-08-23T04:14:56.301Z,4.10
2018-08-23T04:16:02.000Z,7.20
2018-08-23T04:17:08.206Z,6.57
2018-08-23T04:18:14.554Z,7.62
2018-08-23T04:19:21.243Z,4.30
2018-08-23T04:20:26.903Z,6.03
2018-08-23T04:21:33.586Z,5.03
2018-08-23T04:22:39.936Z,5.18
2018-08-23T04:23:46.352Z,4.60
2018-08-23T04:24:52.827Z,4.45
2018-08-23T04:25:59.634Z,6.55
2018-08-23T04:27:05.985Z,4.72
2018-08-23T04:28:12.279Z,5.50
2018-08-23T04:29:17.635Z,7.55
2018-08-23T04:30:23.929Z,4.40
2018-08-23T04:31:30.268Z,4.25
2018-08-23T04:32:36.374Z,5.80
2018-08-23T04:33:42.623Z,4.87
2018-08-23T04:34:49.169Z,5.97
2018-08-23T04:35:55.429Z,8.05
2018-08-23T04:37:01.675Z,4.70
2018-08-23T04:38:07.648Z,4.22
2018-08-23T04:39:14.072Z,6.57
2018-08-23T04:40:20.391Z,6.32
2018-08-23T04:41:26.418Z,5.82
2018-08-23T04:42:34.447Z,4.25
2018-08-23T04:43:41.963Z,4.93
2018-08-23T04:44:48.425Z,4.78
2018-08-23T04:45:54.681Z,4.22
2018-08-23T04:47:00.976Z,4.87
2018-08-23T04:48:06.995Z,4.22
2018-08-23T04:49:12.677Z,4.03
2018-08-23T04:50:19.182Z,5.50
2018-08-23T04:51:25.558Z,5.55
2018-08-23T04:52:31.909Z,6.05
2018-08-23T04:53:37.794Z,5.00
2018-08-23T04:54:43.748Z,7.50
2018-08-23T04:55:50.128Z,4.80
2018-08-23T04:56:56.373Z,6.93
2018-08-23T04:58:02.723Z,6.45
2018-08-23T04:59:09.022Z,5.10
2018-08-23T05:00:15.553Z,6.85
2018-08-23T05:01:21.979Z,4.80
2018-08-23T05:02:28.288Z,6.37
2018-08-23T05:03:34.484Z,6.47
2018-08-23T05:04:40.491Z,5.70
2018-08-23T05:05:47.820Z,6.57
2018-08-23T05:06:54.283Z,5.85
2018-08-23T05:08:00.891Z,6.68
2018-08-23T05:09:06.544Z,7.05
2018-08-23T05:10:13.168Z,5.95
2018-08-23T05:11:19.462Z,6.87
2018-08-23T05:12:25.765Z,9.05
2018-08-23T05:13:32.652Z,6.07
2018-08-23T05:14:40.249Z,6.35
2018-08-23T05:15:46.572Z,6.00
2018-08-23T05:16:52.852Z,8.25
2018-08-23T05:17:59.297Z,6.43
2018-08-23T05:19:05.271Z,6.50
2018-08-23T05:20:11.924Z,14.60
2018-08-23T05:21:17.883Z,9.23
2018-08-23T05:22:25.217Z,6.00
2018-08-23T05:23:31.605Z,6.05
2018-08-23T05:24:37.948Z,9.23
2018-08-23T05:25:44.306Z,6.28
2018-08-23T05:26:50.611Z,9.13
2018-08-23T05:27:56.095Z,6.55
2018-08-23T05:29:02.474Z,7.60
2018-08-23T05:30:08.608Z,7.55
2018-08-23T05:31:15.151Z,9.35
2018-08-23T05:32:21.534Z,7.95
2018-08-23T05:33:27.880Z,10.00
2018-08-23T05:34:34.412Z,11.05
2018-08-23T05:35:42.071Z,13.75
2018-08-23T05:36:48.520Z,6.82
2018-08-23T05:37:54.959Z,12.93
2018-08-23T05:39:01.630Z,8.05
2018-08-23T05:40:08.136Z,11.20
2018-08-23T05:41:15.164Z,10.63
2018-08-23T05:42:20.408Z,11.43
2018-08-23T05:43:26.411Z,13.48
2018-08-23T05:44:32.726Z,9.00
2018-08-23T05:45:38.831Z,9.20
2018-08-23T05:46:45.116Z,9.90
2018-08-23T05:47:52.392Z,14.85
2018-08-23T05:48:58.704Z,10.77
2018-08-23T05:50:05.612Z,12.02
2018-08-23T05:51:12.012Z,10.63
2018-08-23T05:52:18.033Z,8.35
2018-08-23T05:53:24.355Z,9.90
2018-08-23T05:54:30.692Z,10.93
2018-08-23T05:55:36.754Z,13.07
2018-08-23T05:56:43.091Z,9.85
2018-08-23T05:57:48.468Z,12.25
2018-08-23T05:58:54.106Z,10.98
2018-08-23T06:00:01.028Z,11.23
2018-08-23T06:01:06.699Z,11.95
2018-08-23T06:02:13.214Z,10.40
2018-08-23T06:03:19.471Z,9.95
2018-08-23T06:04:24.952Z,11.15
2018-08-23T06:05:31.349Z,12.93
2018-08-23T06:06:37.666Z,13.52
2018-08-23T06:07:43.938Z,12.15
2018-08-23T06:08:50.031Z,9.38
2018-08-23T06:09:56.556Z,10.70
2018-08-23T06:11:02.083Z,12.95
2018-08-23T06:12:08.078Z,13.13
2018-08-23T06:13:14.393Z,11.05
2018-08-23T06:14:20.818Z,12.85
2018-08-23T06:15:27.327Z,14.98
2018-08-23T06:16:32.683Z,11.45
2018-08-23T06:17:38.831Z,12.75
2018-08-23T06:18:45.149Z,16.02
2018-08-23T06:19:51.431Z,12.30
2018-08-23T06:20:57.581Z,14.82
2018-08-23T06:22:03.316Z,15.18
2018-08-23T06:23:10.096Z,22.45
2018-08-23T06:24:16.392Z,13.23
2018-08-23T06:25:22.372Z,20.67
2018-08-23T06:26:28.713Z,16.42
2018-08-23T06:27:34.476Z,19.00
2018-08-23T06:28:40.532Z,18.62
2018-08-23T06:29:46.519Z,14.85
2018-08-23T06:30:52.234Z,9.65
2018-08-23T06:31:58.340Z,14.98
2018-08-23T06:33:04.475Z,11.63
2018-08-23T06:34:10.980Z,9.73
2018-08-23T06:35:17.496Z,9.85
2018-08-23T06:36:24.387Z,9.48
2018-08-23T06:37:30.673Z,8.60
2018-08-23T06:38:36.846Z,9.20
2018-08-23T06:39:43.130Z,13.00
2018-08-23T06:40:49.434Z,9.77
2018-08-23T06:41:55.015Z,9.50
2018-08-23T06:43:00.882Z,10.13
2018-08-23T06:44:07.251Z,7.78
2018-08-23T06:45:13.327Z,10.75
2018-08-23T06:46:19.664Z,8.93
2018-08-23T06:47:25.952Z,7.90
2018-08-23T06:48:32.132Z,8.70
2018-08-23T06:49:38.189Z,6.55
2018-08-23T06:50:43.948Z,8.85
2018-08-23T06:51:49.495Z,9.57
2018-08-23T06:52:55.487Z,9.65
2018-08-23T06:54:01.576Z,10.27
2018-08-23T06:55:06.986Z,6.90
2018-08-23T06:56:13.242Z,8.90
2018-08-23T06:57:19.370Z,7.72
2018-08-23T06:58:25.576Z,8.32
2018-08-23T06:59:31.724Z,8.70
2018-08-23T07:00:38.007Z,7.80
2018-08-23T07:01:44.861Z,7.75
2018-08-23T07:02:51.136Z,7.07
2018-08-23T07:03:57.211Z,7.93
2018-08-23T07:05:03.721Z,7.12
2018-08-23T07:06:14.984Z,8.25
2018-08-23T07:07:20.993Z,7.53
2018-08-23T07:08:27.201Z,7.50
2018-08-23T07:09:33.229Z,10.88
2018-08-23T07:10:39.651Z,8.50
2018-08-23T07:11:45.869Z,9.32
2018-08-23T07:12:51.724Z,6.80
2018-08-23T07:13:57.713Z,8.10
2018-08-23T07:15:04.008Z,7.78
2018-08-23T07:16:10.375Z,8.20
2018-08-23T07:17:15.831Z,8.45
2018-08-23T07:18:22.064Z,7.65
2018-08-23T07:19:27.403Z,6.47
2018-08-23T07:20:33.770Z,6.05
2018-08-23T07:21:39.976Z,7.35
2018-08-23T07:22:46.330Z,6.47
2018-08-23T07:23:52.318Z,5.57
2018-08-23T07:24:58.328Z,5.82
2018-08-23T07:26:04.025Z,6.70
2018-08-23T07:27:10.158Z,6.50
2018-08-23T07:28:16.284Z,5.55
2018-08-23T07:29:22.309Z,8.63
2018-08-23T07:30:28.387Z,5.68
2018-08-23T07:31:33.774Z,6.65
2018-08-23T07:32:40.066Z,5.57
2018-08-23T07:33:45.903Z,5.85
2018-08-23T07:34:51.936Z,9.25
2018-08-23T07:35:57.382Z,7.72
2018-08-23T07:37:03.234Z,7.10
2018-08-23T07:38:09.365Z,7.03
2018-08-23T07:39:15.749Z,6.40
2018-08-23T07:40:22.303Z,6.20
2018-08-23T07:41:28.638Z,7.60
2018-08-23T07:42:34.916Z,10.38
2018-08-23T07:43:41.002Z,7.00
2018-08-23T07:44:47.310Z,6.00
2018-08-23T07:45:53.672Z,10.85
2018-08-23T07:46:59.938Z,6.30
2018-08-23T07:48:06.292Z,14.15
2018-08-23T07:49:12.566Z,5.55
2018-08-23T07:50:18.622Z,8.85
2018-08-23T07:51:24.662Z,5.10
2018-08-23T07:52:31.697Z,5.93
2018-08-23T07:53:37.928Z,5.43
2018-08-23T07:54:43.982Z,6.30
2018-08-23T07:55:50.236Z,5.03
2018-08-23T07:56:56.298Z,7.45
2018-08-23T07:58:03.359Z,6.87
2018-08-23T07:59:09.280Z,7.15
2018-08-23T08:00:14.860Z,6.28
2018-08-23T08:01:20.707Z,5.80
2018-08-23T08:02:27.004Z,5.97
2018-08-23T08:03:33.169Z,5.55
2018-08-23T08:04:39.174Z,4.93
2018-08-23T08:05:45.415Z,9.20
2018-08-23T08:06:51.055Z,7.30
2018-08-23T08:07:57.088Z,4.95
2018-08-23T08:09:03.123Z,6.62
2018-08-23T08:10:09.219Z,5.30
2018-08-23T08:11:16.396Z,5.72
2018-08-23T08:12:21.856Z,10.80
2018-08-23T08:13:27.890Z,4.93
2018-08-23T08:14:33.910Z,8.40
2018-08-23T08:15:39.829Z,6.45
2018-08-23T08:16:46.074Z,4.57
2018-08-23T08:17:52.128Z,4.80
2018-08-23T08:18:57.524Z,4.20
2018-08-23T08:20:03.183Z,6.80
2018-08-23T08:21:09.248Z,7.60
2018-08-23T08:22:15.274Z,5.65
2018-08-23T08:23:21.619Z,4.82
2018-08-23T08:24:27.930Z,6.97
2018-08-23T08:25:34.541Z,6.80
2018-08-23T08:26:40.822Z,5.95
2018-08-23T08:27:46.179Z,4.53
2018-08-23T08:28:52.456Z,5.43
2018-08-23T08:30:02.223Z,5.18
2018-08-23T08:31:08.284Z,4.87
2018-08-23T08:32:14.296Z,5.65
2018-08-23T08:33:21.262Z,5.37
2018-08-23T08:34:28.437Z,5.70
2018-08-23T08:35:34.758Z,4.05
2018-08-23T08:36:40.730Z,9.85
2018-08-23T08:37:46.398Z,4.20
2018-08-23T08:38:52.484Z,6.43
2018-08-23T08:39:58.442Z,8.43
2018-08-23T08:41:07.824Z,5.97
2018-08-23T08:42:13.775Z,4.47
2018-08-23T08:43:19.809Z,6.70
2018-08-23T08:44:25.856Z,4.50
2018-08-23T08:45:32.137Z,8.27
2018-08-23T08:46:38.152Z,7.30
2018-08-23T08:47:43.771Z,5.73
2018-08-23T08:48:49.889Z,5.10
2018-08-23T08:49:55.837Z,4.83
2018-08-23T08:51:00.850Z,4.67
2018-08-23T08:52:06.065Z,5.90
2018-08-23T08:53:12.059Z,5.80
2018-08-23T08:54:17.400Z,6.33
2018-08-23T08:55:22.411Z,4.40
2018-08-23T08:56:27.768Z,4.67
2018-08-23T08:57:33.530Z,4.30
2018-08-23T08:58:39.154Z,5.90
2018-08-23T08:59:45.107Z,6.80
2018-08-23T09:00:50.774Z,8.73
2018-08-23T09:01:56.478Z,4.43
2018-08-23T09:03:02.419Z,6.20
2018-08-23T09:04:08.740Z,5.10
2018-08-23T09:05:17.121Z,4.87
2018-08-23T09:06:22.663Z,5.50
2018-08-23T09:07:28.479Z,6.90
2018-08-23T09:08:35.191Z,4.77
2018-08-23T09:09:40.213Z,6.43
2018-08-23T09:10:46.175Z,4.00
2018-08-23T09:11:52.007Z,3.63
2018-08-23T09:12:57.781Z,7.33
2018-08-23T09:14:03.809Z,8.40
2018-08-23T09:15:09.849Z,5.50
2018-08-23T09:16:15.825Z,4.30
2018-08-23T09:17:40.518Z,9.57
2018-08-23T09:18:45.465Z,3.90
2018-08-23T09:19:58.828Z,5.03
2018-08-23T09:21:04.120Z,7.20
2018-08-23T09:22:09.855Z,4.03
2018-08-23T09:23:15.859Z,3.70
2018-08-23T09:24:28.146Z,4.77
2018-08-23T09:25:33.890Z,9.17
2018-08-23T09:26:39.963Z,6.13
2018-08-23T09:27:45.363Z,5.17
2018-08-23T09:28:51.104Z,4.83
2018-08-23T09:29:57.111Z,4.10
2018-08-23T09:31:02.456Z,5.90
2018-08-23T09:32:07.727Z,4.00
2018-08-23T09:33:13.673Z,9.30
2018-08-23T09:34:20.048Z,4.60
2018-08-23T09:35:25.235Z,4.00
2018-08-23T09:36:31.196Z,8.43
2018-08-23T09:37:36.461Z,5.60
2018-08-23T09:38:42.404Z,4.70
2018-08-23T09:39:48.425Z,8.07
2018-08-23T09:40:54.520Z,6.00
2018-08-23T09:42:00.540Z,3.70
2018-08-23T09:43:06.299Z,4.73
2018-08-23T09:44:12.611Z,4.20
2018-08-23T09:45:18.542Z,4.77
2018-08-23T09:46:24.552Z,4.40
2018-08-23T09:47:30.523Z,4.13
2018-08-23T09:48:36.353Z,5.07
2018-08-23T09:49:42.441Z,5.07
2018-08-23T09:50:48.218Z,4.23
2018-08-23T09:51:54.387Z,7.03
2018-08-23T09:52:59.714Z,4.83
2018-08-23T09:54:05.836Z,5.00
2018-08-23T09:55:11.248Z,4.87
2018-08-23T09:56:17.526Z,5.00
2018-08-23T09:57:23.228Z,4.50
2018-08-23T09:58:29.052Z,4.23
2018-08-23T09:59:34.838Z,10.03
2018-08-23T10:00:40.715Z,4.07
2018-08-23T10:03:24.020Z,3.80
2018-08-23T10:06:01.128Z,4.00
2018-08-23T10:07:06.785Z,4.63
2018-08-23T10:08:12.590Z,5.60
2018-08-23T10:09:18.899Z,5.57
2018-08-23T10:10:24.668Z,9.60
2018-08-23T10:13:18.051Z,5.13
2018-08-23T10:14:36.738Z,4.80
2018-08-23T10:15:42.553Z,4.70
2018-08-23T10:16:48.387Z,4.20
2018-08-23T10:19:26.045Z,5.70
2018-08-23T10:22:03.370Z,4.20
2018-08-23T10:23:08.967Z,4.43
2018-08-23T10:24:14.795Z,4.37
2018-08-23T10:25:19.579Z,6.10
2018-08-23T10:26:24.511Z,5.03
2018-08-23T10:27:30.332Z,4.77
2018-08-23T10:28:36.297Z,5.30
2018-08-23T10:29:42.379Z,5.87
2018-08-23T10:30:47.391Z,5.47
2018-08-23T10:31:53.341Z,6.07
2018-08-23T10:32:59.273Z,4.00
2018-08-23T10:34:05.611Z,4.20
2018-08-23T10:35:11.610Z,4.80
2018-08-23T10:36:18.452Z,6.10
2018-08-23T10:37:24.415Z,3.80
2018-08-23T10:38:30.133Z,3.80
2018-08-23T10:39:36.048Z,5.27
2018-08-23T10:40:42.783Z,4.83
2018-08-23T10:41:48.908Z,4.40
2018-08-23T10:42:54.841Z,4.67
2018-08-23T10:44:00.653Z,5.50
2018-08-23T10:45:06.555Z,3.70
2018-08-23T10:46:12.256Z,4.53
2018-08-23T10:47:18.043Z,4.70
2018-08-23T10:48:24.063Z,3.17
2018-08-23T10:49:29.843Z,4.60
2018-08-23T10:50:35.899Z,3.73
2018-08-23T10:51:41.868Z,4.00
2018-08-23T10:52:47.876Z,5.60
2018-08-23T10:53:53.899Z,3.93
2018-08-23T10:54:59.908Z,5.23
2018-08-23T10:56:05.544Z,4.10
2018-08-23T10:57:11.356Z,5.80
2018-08-23T10:58:17.595Z,4.67
2018-08-23T10:59:23.622Z,6.03
2018-08-23T11:00:29.584Z,3.37
2018-08-23T11:01:35.616Z,4.50
2018-08-23T11:02:41.611Z,5.20
2018-08-23T11:03:48.399Z,4.80
2018-08-23T11:04:54.248Z,5.97
2018-08-23T11:06:00.379Z,3.97
2018-08-23T11:07:06.125Z,4.53
2018-08-23T11:08:11.948Z,4.40
2018-08-23T11:09:17.705Z,3.93
2018-08-23T11:11:56.603Z,4.03
2018-08-23T11:13:02.340Z,4.10
2018-08-23T11:14:08.164Z,3.60
2018-08-23T11:15:14.101Z,4.37
2018-08-23T11:16:19.666Z,4.03
2018-08-23T11:19:03.671Z,5.57
2018-08-23T11:20:12.097Z,5.60
2018-08-23T11:21:18.198Z,3.80
2018-08-23T11:22:23.931Z,4.00
2018-08-23T11:23:29.774Z,5.80
2018-08-23T11:24:35.370Z,6.10
2018-08-23T11:25:41.355Z,5.70
2018-08-23T11:26:46.752Z,4.20
2018-08-23T11:27:52.439Z,4.30
2018-08-23T11:28:58.289Z,4.50
2018-08-23T11:30:04.023Z,4.83
2018-08-23T11:31:10.567Z,3.83
2018-08-23T11:32:16.406Z,4.50
2018-08-23T11:33:22.057Z,4.90
2018-08-23T11:34:28.004Z,3.83
2018-08-23T11:35:33.999Z,3.97
2018-08-23T11:36:39.999Z,4.20
2018-08-23T11:37:45.980Z,5.93
2018-08-23T11:38:52.032Z,4.17
2018-08-23T11:39:57.664Z,4.63
2018-08-23T11:41:03.391Z,4.37
2018-08-23T11:42:09.418Z,3.70
2018-08-23T11:43:15.054Z,5.93
2018-08-23T11:44:20.988Z,4.00
2018-08-23T11:45:27.015Z,3.83
2018-08-23T11:46:33.733Z,3.97
2018-08-23T11:47:39.726Z,4.07
2018-08-23T11:48:45.773Z,3.93
2018-08-23T11:49:51.947Z,3.70
2018-08-23T11:50:57.738Z,5.07
2018-08-23T11:52:03.772Z,4.60
2018-08-23T11:53:09.481Z,3.47
2018-08-23T11:54:16.193Z,4.20
2018-08-23T11:55:22.308Z,4.63
2018-08-23T11:56:27.936Z,4.00
2018-08-23T11:57:33.715Z,3.53
2018-08-23T11:58:39.578Z,3.90
2018-08-23T11:59:45.269Z,5.07
2018-08-23T12:00:51.031Z,3.43
2018-08-23T12:01:56.984Z,4.13
2018-08-23T12:03:03.370Z,3.77
2018-08-23T12:04:09.143Z,4.27
2018-08-23T12:05:15.971Z,4.10
2018-08-23T12:06:21.946Z,3.70
2018-08-23T12:07:27.904Z,3.93
2018-08-23T12:08:33.908Z,3.70
2018-08-23T12:09:39.961Z,3.60
2018-08-23T12:10:45.916Z,5.67
2018-08-23T12:11:51.885Z,3.30
2018-08-23T12:12:57.560Z,5.30
2018-08-23T12:14:03.537Z,3.70
2018-08-23T12:15:08.878Z,4.10
2018-08-23T12:16:14.840Z,3.57
2018-08-23T12:17:20.885Z,3.60
2018-08-23T12:18:26.047Z,4.23
2018-08-23T12:19:31.800Z,3.83
2018-08-23T12:20:37.993Z,5.00
2018-08-23T12:21:43.965Z,4.73
2018-08-23T12:22:49.722Z,3.77
2018-08-23T12:23:55.777Z,3.83
2018-08-23T12:25:01.767Z,3.53
2018-08-23T12:26:07.823Z,4.63
2018-08-23T12:27:13.789Z,4.23
2018-08-23T12:28:19.717Z,4.50
2018-08-23T12:29:25.358Z,4.80
2018-08-23T12:30:31.872Z,4.60
2018-08-23T12:31:38.019Z,3.60
2018-08-23T12:32:44.409Z,19.27
2018-08-23T12:33:50.349Z,3.40
2018-08-23T12:34:56.290Z,4.10
2018-08-23T12:36:01.848Z,3.90
2018-08-23T12:37:07.546Z,4.83
2018-08-23T12:40:01.727Z,3.87
2018-08-23T12:41:37.480Z,4.90
2018-08-23T12:42:56.682Z,4.90
2018-08-23T12:44:02.649Z,5.83
2018-08-23T12:45:07.980Z,4.10
2018-08-23T12:46:13.294Z,5.70
2018-08-23T12:47:19.250Z,3.90
2018-08-23T12:48:25.263Z,4.57
2018-08-23T12:49:31.097Z,3.73
2018-08-23T12:50:37.260Z,3.33
2018-08-23T12:51:43.266Z,3.40
2018-08-23T12:52:49.312Z,3.87
2018-08-23T12:53:55.014Z,4.37
2018-08-23T12:55:01.025Z,3.50
2018-08-23T12:56:06.335Z,4.30
2018-08-23T12:57:12.057Z,4.00
2018-08-23T12:58:18.106Z,4.03
2018-08-23T12:59:24.083Z,4.03
2018-08-23T13:00:29.904Z,3.80
2018-08-23T13:01:36.140Z,6.87
2018-08-23T13:02:42.418Z,4.53
2018-08-23T13:03:48.646Z,3.47
2018-08-23T13:04:54.849Z,4.43
2018-08-23T13:06:00.511Z,4.20
2018-08-23T13:07:06.622Z,4.13
2018-08-23T13:08:13.223Z,6.97
2018-08-23T13:09:19.587Z,5.03
2018-08-23T13:10:25.569Z,4.40
2018-08-23T13:11:31.580Z,4.30
2018-08-23T13:12:37.599Z,3.57
2018-08-23T13:13:44.151Z,4.83
2018-08-23T13:14:50.257Z,4.13
2018-08-23T13:15:56.200Z,3.33
2018-08-23T13:17:02.202Z,3.70
2018-08-23T13:18:08.200Z,3.77
2018-08-23T13:19:14.231Z,3.70
2018-08-23T13:20:19.936Z,3.90
2018-08-23T13:21:25.340Z,4.10
2018-08-23T13:22:31.072Z,5.33
2018-08-23T13:23:37.010Z,4.10
2018-08-23T13:24:42.879Z,4.20
2018-08-23T13:25:48.775Z,3.83
2018-08-23T13:26:54.917Z,4.80
2018-08-23T13:28:00.585Z,4.50
2018-08-23T13:29:06.652Z,3.50
2018-08-23T13:30:12.055Z,4.50
2018-08-23T13:31:18.121Z,4.00
2018-08-23T13:32:24.139Z,4.57
2018-08-23T13:33:30.155Z,4.67
2018-08-23T13:34:36.144Z,5.80
2018-08-23T13:35:41.624Z,3.33
2018-08-23T13:36:47.400Z,3.73
2018-08-23T13:37:53.148Z,8.50
2018-08-23T13:38:59.275Z,3.20
2018-08-23T13:40:05.222Z,2.83
2018-08-23T13:41:11.035Z,2.73
2018-08-23T13:42:17.022Z,4.37
2018-08-23T13:43:23.167Z,3.93
2018-08-23T13:44:29.286Z,3.73
2018-08-23T13:45:35.256Z,4.20
2018-08-23T13:46:41.273Z,5.43
2018-08-23T13:47:46.993Z,4.40
2018-08-23T13:48:52.690Z,5.47
2018-08-23T13:49:58.698Z,3.80
2018-08-23T13:51:04.649Z,3.17
2018-08-23T13:52:10.589Z,4.60
2018-08-23T13:53:17.203Z,3.80
2018-08-23T13:54:23.628Z,7.03
2018-08-23T13:55:29.340Z,3.93
2018-08-23T13:56:36.036Z,3.90
2018-08-23T13:57:42.069Z,5.53
2018-08-23T13:58:47.785Z,3.70
2018-08-23T13:59:54.002Z,2.90
2018-08-23T14:01:09.283Z,4.17
2018-08-23T14:02:21.227Z,2.93
2018-08-23T14:03:27.511Z,3.13
2018-08-23T14:04:33.291Z,3.23
2018-08-23T14:05:39.021Z,3.20
2018-08-23T14:06:45.048Z,4.60
2018-08-23T14:07:51.050Z,4.43
2018-08-23T14:08:57.068Z,4.00
2018-08-23T14:10:03.653Z,3.60
2018-08-23T14:11:09.812Z,3.23
2018-08-23T14:12:16.977Z,3.80
2018-08-23T14:13:23.326Z,3.33
2018-08-23T14:14:29.019Z,3.37
2018-08-23T14:15:34.416Z,3.47
2018-08-23T14:16:40.468Z,3.40
2018-08-23T14:17:46.399Z,3.60
2018-08-23T14:18:52.398Z,3.30
2018-08-23T14:19:58.546Z,4.17
2018-08-23T14:21:04.672Z,3.77
2018-08-23T14:22:10.665Z,3.30
2018-08-23T14:23:16.634Z,4.47
2018-08-23T14:24:22.647Z,3.83
2018-08-23T14:25:28.673Z,5.00
2018-08-23T14:26:34.656Z,3.07
2018-08-23T14:27:40.403Z,4.60
2018-08-23T14:28:46.245Z,3.60
2018-08-23T14:29:52.267Z,3.10
2018-08-23T14:30:58.237Z,5.27
2018-08-23T14:32:04.248Z,5.73
2018-08-23T14:33:10.266Z,4.33
2018-08-23T14:34:16.561Z,5.70
2018-08-23T14:35:22.281Z,4.10
2018-08-23T14:36:28.301Z,5.40
2018-08-23T14:37:34.690Z,4.13
2018-08-23T14:38:40.698Z,4.90
2018-08-23T14:39:46.431Z,4.33
2018-08-23T14:40:52.412Z,3.57
2018-08-23T14:41:58.190Z,3.27
2018-08-23T14:43:03.714Z,7.30
2018-08-23T14:44:09.296Z,8.10
2018-08-23T14:45:14.971Z,6.80
2018-08-23T14:46:20.755Z,4.20
2018-08-23T14:47:31.462Z,5.77
2018-08-23T14:48:37.748Z,5.33
2018-08-23T14:49:43.977Z,4.20
2018-08-23T14:50:50.168Z,4.90
2018-08-23T14:51:56.452Z,8.23
2018-08-23T14:53:03.718Z,7.10